Smithville, TN (37166)

4:06 AM CST on November 18, 2017 (GMT -0600)
Amateur Radio Station W4WFC - Dogwood Circle | | Change Station
Active Advisory: Wind Advisory

Elev 1047 ft 35.98 °N, 85.80 °W | Updated 11 minutes ago

Overcast
Overcast
56.6 °F
Feels Like 56.6 °F
N
2.0
Wind Variable Wind from SSE
Gusts 9.0 mph

Today
High -- | Low -- °F
--% Chance of Precip.
Yesterday
High -- | Low -- °F
Precip. -- in
Pressure 29.85 in
Visibility 10.0 miles
Clouds Few 3000 ft
Overcast 7500 ft
Dew Point 42 °F
Humidity 59%
Rainfall 0.00 in
Snow Depth Not available.
6:22 AM 4:33 PM
Waning Crescent, 0% visible
METAR KSRB 180955Z AUTO 17009G19KT 10SM FEW030 OVC075 14/04 A2985 RMK A01
Pressure 29.85 in
Visibility 10.0 miles
Clouds Few 3000 ft
Overcast 7500 ft
Dew Point 42 °F
Humidity 59%
Rainfall 0.00 in
Snow Depth Not available.
6:22 AM 4:33 PM
Waning Crescent, 0% visible
METAR KSRB 180955Z AUTO 17009G19KT 10SM FEW030 OVC075 14/04 A2985 RMK A01

Get Your Daily Forecast Email!

Thanks for signing up!

Be on the lookout for a verification email in your inbox.

You'll start receiving severe weather alerts in your inbox..

×

10-Day Weather Forecast

Almanac

Astronomy

Nov. 18, 2017 Rise Set
Actual Time
Civil Twilight
Nautical Twilight
Astronomical Twilight
Moon
Length of Visible Light
Length of Day
Tomorrow will be .
, % of the Moon is Illuminated

Today's Extremes

State Highs State Lows

Community

WunderPhotos

Category 6

Welcome to Category 6. This is the collective home for Weather Underground's featured writeups by Dr. Jeff Masters (right), Bob Henson (left), Chris Burt, and other regular contributors.

Nearby

Air Quality

  Air Quality AQ Index Pollutant
Not available.

Snow Depth

Station Depth Elevation

Earthquake Activity

City Distance Mag. Time & Date
Minimum magnitude displayed is 2.5.

Coastal Water Temperatures

Place Temperature

Stations

Nearby Weather Stations

Station Location Temp. Windchill Dew Point Humidity Wind Precip. Elev Updated Type
                   

Watches & Warnings

Wind Advisory
Issued: 1:47 AM CST Nov. 18, 2017 – National Weather Service

... Wind Advisory now in effect from 6 am this morning to midnight
CST tonight...

* timing... windy conditions will develop this morning and persist
into the evening.

* Winds... sustained speeds of 20 to 30 mph with gusts as high as
45 mph.

* Impacts... minor wind damage is possible along with impaired
driving conditions.

Precautionary/preparedness actions...

A Wind Advisory means that winds over 40 mph are expected. Winds
this strong may blow down a few trees or tree limbs and cause
isolated power outages. Driving may also become difficult...
especially for high profile vehicles. Use extra caution.